sensor_id;sensor_type;location;lat;lon;timestamp;P1;durP1;ratioP1;P2;durP2;ratioP2
78005;SDS011;67211;42.146;24.756;2023-05-17T00:02:24;5.22;;;3.20;;
78005;SDS011;67211;42.146;24.756;2023-05-17T00:04:50;4.30;;;3.13;;
78005;SDS011;67211;42.146;24.756;2023-05-17T00:07:17;6.60;;;3.10;;
78005;SDS011;67211;42.146;24.756;2023-05-17T00:09:42;7.65;;;3.17;;
78005;SDS011;67211;42.146;24.756;2023-05-17T00:12:08;5.53;;;3.10;;
78005;SDS011;67211;42.146;24.756;2023-05-17T00:14:33;4.82;;;2.78;;
78005;SDS011;67211;42.146;24.756;2023-05-17T00:16:59;5.88;;;2.83;;
78005;SDS011;67211;42.146;24.756;2023-05-17T00:19:25;6.75;;;3.45;;
78005;SDS011;67211;42.146;24.756;2023-05-17T00:21:50;6.78;;;3.40;;
78005;SDS011;67211;42.146;24.756;2023-05-17T00:24:15;5.97;;;3.03;;
78005;SDS011;67211;42.146;24.756;2023-05-17T00:26:41;5.72;;;2.70;;
78005;SDS011;67211;42.146;24.756;2023-05-17T00:29:06;7.13;;;3.05;;
78005;SDS011;67211;42.146;24.756;2023-05-17T00:31:32;4.95;;;3.40;;
78005;SDS011;67211;42.146;24.756;2023-05-17T00:33:57;5.95;;;2.83;;
78005;SDS011;67211;42.146;24.756;2023-05-17T00:36:22;6.72;;;3.33;;
78005;SDS011;67211;42.146;24.756;2023-05-17T00:38:48;5.72;;;3.22;;
78005;SDS011;67211;42.146;24.756;2023-05-17T00:41:13;6.55;;;3.70;;
78005;SDS011;67211;42.146;24.756;2023-05-17T00:43:38;8.00;;;3.30;;
78005;SDS011;67211;42.146;24.756;2023-05-17T00:46:04;7.25;;;3.35;;
78005;SDS011;67211;42.146;24.756;2023-05-17T00:48:29;7.47;;;3.70;;
78005;SDS011;67211;42.146;24.756;2023-05-17T00:50:55;7.05;;;3.50;;
78005;SDS011;67211;42.146;24.756;2023-05-17T00:53:21;7.82;;;3.95;;
78005;SDS011;67211;42.146;24.756;2023-05-17T00:55:47;6.43;;;3.03;;
78005;SDS011;67211;42.146;24.756;2023-05-17T00:58:12;6.57;;;3.47;;
78005;SDS011;67211;42.146;24.756;2023-05-17T01:00:38;6.65;;;3.58;;
78005;SDS011;67211;42.146;24.756;2023-05-17T01:03:04;6.88;;;3.95;;
78005;SDS011;67211;42.146;24.756;2023-05-17T01:05:30;7.53;;;4.03;;
78005;SDS011;67211;42.146;24.756;2023-05-17T01:07:55;6.38;;;3.63;;
78005;SDS011;67211;42.146;24.756;2023-05-17T01:10:29;5.32;;;3.60;;
78005;SDS011;67211;42.146;24.756;2023-05-17T01:13:09;7.05;;;3.65;;
78005;SDS011;67211;42.146;24.756;2023-05-17T01:16:41;5.70;;;3.90;;
78005;SDS011;67211;42.146;24.756;2023-05-17T01:18:51;8.43;;;4.35;;
78005;SDS011;67211;42.146;24.756;2023-05-17T01:26:53;6.70;;;3.67;;
78005;SDS011;67211;42.146;24.756;2023-05-17T01:29:21;6.57;;;4.10;;
78005;SDS011;67211;42.146;24.756;2023-05-17T01:31:49;4.95;;;3.30;;
78005;SDS011;67211;42.146;24.756;2023-05-17T01:34:23;8.57;;;4.30;;
78005;SDS011;67211;42.146;24.756;2023-05-17T01:36:49;7.25;;;3.50;;
78005;SDS011;67211;42.146;24.756;2023-05-17T01:39:14;9.98;;;4.13;;
78005;SDS011;67211;42.146;24.756;2023-05-17T01:41:40;11.02;;;4.00;;
78005;SDS011;67211;42.146;24.756;2023-05-17T01:44:13;7.90;;;4.20;;
78005;SDS011;67211;42.146;24.756;2023-05-17T01:47:03;8.63;;;4.32;;
78005;SDS011;67211;42.146;24.756;2023-05-17T01:49:35;10.00;;;4.32;;
78005;SDS011;67211;42.146;24.756;2023-05-17T01:52:07;8.13;;;4.07;;
78005;SDS011;67211;42.146;24.756;2023-05-17T01:54:42;7.72;;;3.75;;
78005;SDS011;67211;42.146;24.756;2023-05-17T01:57:18;7.95;;;4.65;;
78005;SDS011;67211;42.146;24.756;2023-05-17T01:59:44;10.25;;;4.13;;
78005;SDS011;67211;42.146;24.756;2023-05-17T02:02:11;8.32;;;4.25;;
78005;SDS011;67211;42.146;24.756;2023-05-17T02:04:37;8.13;;;4.40;;
78005;SDS011;67211;42.146;24.756;2023-05-17T02:07:03;6.95;;;4.22;;
78005;SDS011;67211;42.146;24.756;2023-05-17T02:09:29;6.85;;;4.30;;
78005;SDS011;67211;42.146;24.756;2023-05-17T02:11:54;10.07;;;4.50;;
78005;SDS011;67211;42.146;24.756;2023-05-17T02:14:21;7.72;;;4.18;;
78005;SDS011;67211;42.146;24.756;2023-05-17T02:16:46;7.22;;;3.83;;
78005;SDS011;67211;42.146;24.756;2023-05-17T02:19:12;7.30;;;4.28;;
78005;SDS011;67211;42.146;24.756;2023-05-17T02:21:38;7.95;;;4.82;;
78005;SDS011;67211;42.146;24.756;2023-05-17T02:24:04;8.00;;;4.50;;
78005;SDS011;67211;42.146;24.756;2023-05-17T02:26:30;6.80;;;4.53;;
78005;SDS011;67211;42.146;24.756;2023-05-17T02:28:56;6.68;;;4.35;;
78005;SDS011;67211;42.146;24.756;2023-05-17T02:31:21;9.65;;;4.90;;
78005;SDS011;67211;42.146;24.756;2023-05-17T02:33:51;6.20;;;4.95;;
78005;SDS011;67211;42.146;24.756;2023-05-17T02:36:17;10.50;;;6.15;;
78005;SDS011;67211;42.146;24.756;2023-05-17T02:38:42;8.02;;;5.47;;
78005;SDS011;67211;42.146;24.756;2023-05-17T02:41:07;9.52;;;5.70;;
78005;SDS011;67211;42.146;24.756;2023-05-17T02:43:33;7.38;;;4.82;;
78005;SDS011;67211;42.146;24.756;2023-05-17T02:45:58;7.05;;;5.10;;
78005;SDS011;67211;42.146;24.756;2023-05-17T02:48:24;7.55;;;5.45;;
78005;SDS011;67211;42.146;24.756;2023-05-17T02:50:49;6.38;;;4.88;;
78005;SDS011;67211;42.146;24.756;2023-05-17T02:53:15;8.18;;;5.38;;
78005;SDS011;67211;42.146;24.756;2023-05-17T02:55:40;9.85;;;5.88;;
78005;SDS011;67211;42.146;24.756;2023-05-17T02:58:05;7.22;;;5.03;;
78005;SDS011;67211;42.146;24.756;2023-05-17T03:00:31;8.05;;;4.93;;
78005;SDS011;67211;42.146;24.756;2023-05-17T03:02:56;7.97;;;5.18;;
78005;SDS011;67211;42.146;24.756;2023-05-17T03:05:21;9.07;;;4.88;;
78005;SDS011;67211;42.146;24.756;2023-05-17T03:07:47;7.63;;;4.88;;
78005;SDS011;67211;42.146;24.756;2023-05-17T03:10:12;8.00;;;4.85;;
78005;SDS011;67211;42.146;24.756;2023-05-17T03:12:38;9.27;;;5.63;;
78005;SDS011;67211;42.146;24.756;2023-05-17T03:15:03;8.48;;;5.20;;
78005;SDS011;67211;42.146;24.756;2023-05-17T03:17:29;10.38;;;5.22;;
78005;SDS011;67211;42.146;24.756;2023-05-17T03:19:54;9.23;;;4.95;;
78005;SDS011;67211;42.146;24.756;2023-05-17T03:22:20;8.38;;;4.70;;
78005;SDS011;67211;42.146;24.756;2023-05-17T03:24:46;13.90;;;6.45;;
78005;SDS011;67211;42.146;24.756;2023-05-17T03:27:11;8.85;;;4.97;;
78005;SDS011;67211;42.146;24.756;2023-05-17T03:29:36;9.57;;;5.50;;
78005;SDS011;67211;42.146;24.756;2023-05-17T03:32:02;10.80;;;6.50;;
78005;SDS011;67211;42.146;24.756;2023-05-17T03:34:27;9.70;;;5.30;;
78005;SDS011;67211;42.146;24.756;2023-05-17T03:36:54;10.80;;;6.32;;
78005;SDS011;67211;42.146;24.756;2023-05-17T03:39:19;14.75;;;6.82;;
78005;SDS011;67211;42.146;24.756;2023-05-17T03:41:45;10.70;;;7.00;;
78005;SDS011;67211;42.146;24.756;2023-05-17T03:44:10;11.40;;;6.47;;
78005;SDS011;67211;42.146;24.756;2023-05-17T03:46:35;14.38;;;7.28;;
78005;SDS011;67211;42.146;24.756;2023-05-17T03:49:01;13.18;;;6.70;;
78005;SDS011;67211;42.146;24.756;2023-05-17T03:51:27;9.73;;;6.20;;
78005;SDS011;67211;42.146;24.756;2023-05-17T03:53:56;11.75;;;6.47;;
78005;SDS011;67211;42.146;24.756;2023-05-17T03:56:22;8.82;;;6.32;;
78005;SDS011;67211;42.146;24.756;2023-05-17T03:58:48;9.65;;;6.10;;
78005;SDS011;67211;42.146;24.756;2023-05-17T04:01:13;11.52;;;6.20;;
78005;SDS011;67211;42.146;24.756;2023-05-17T04:03:39;10.35;;;5.97;;
78005;SDS011;67211;42.146;24.756;2023-05-17T04:06:04;13.98;;;6.53;;
78005;SDS011;67211;42.146;24.756;2023-05-17T04:08:31;9.25;;;5.50;;
78005;SDS011;67211;42.146;24.756;2023-05-17T04:10:57;9.45;;;5.90;;
78005;SDS011;67211;42.146;24.756;2023-05-17T04:13:23;9.40;;;6.07;;
78005;SDS011;67211;42.146;24.756;2023-05-17T04:15:48;12.45;;;6.40;;
78005;SDS011;67211;42.146;24.756;2023-05-17T04:18:14;13.05;;;6.28;;
78005;SDS011;67211;42.146;24.756;2023-05-17T04:20:39;14.57;;;6.50;;
78005;SDS011;67211;42.146;24.756;2023-05-17T04:23:05;10.73;;;6.88;;
78005;SDS011;67211;42.146;24.756;2023-05-17T04:25:30;8.68;;;5.70;;
78005;SDS011;67211;42.146;24.756;2023-05-17T04:27:57;11.05;;;6.78;;
78005;SDS011;67211;42.146;24.756;2023-05-17T04:30:22;11.52;;;6.50;;
78005;SDS011;67211;42.146;24.756;2023-05-17T04:32:48;10.95;;;5.95;;
78005;SDS011;67211;42.146;24.756;2023-05-17T04:35:14;10.98;;;6.90;;
78005;SDS011;67211;42.146;24.756;2023-05-17T04:37:41;12.70;;;8.20;;
78005;SDS011;67211;42.146;24.756;2023-05-17T04:40:07;13.77;;;7.72;;
78005;SDS011;67211;42.146;24.756;2023-05-17T04:42:32;14.63;;;7.30;;
78005;SDS011;67211;42.146;24.756;2023-05-17T04:44:58;13.88;;;7.03;;
78005;SDS011;67211;42.146;24.756;2023-05-17T04:47:23;13.90;;;7.88;;
78005;SDS011;67211;42.146;24.756;2023-05-17T04:49:49;10.45;;;7.90;;
78005;SDS011;67211;42.146;24.756;2023-05-17T04:52:15;15.00;;;8.18;;
78005;SDS011;67211;42.146;24.756;2023-05-17T04:54:41;19.95;;;9.00;;
78005;SDS011;67211;42.146;24.756;2023-05-17T04:57:06;14.52;;;9.55;;
78005;SDS011;67211;42.146;24.756;2023-05-17T04:59:31;15.43;;;9.18;;
78005;SDS011;67211;42.146;24.756;2023-05-17T05:01:57;13.57;;;8.88;;
78005;SDS011;67211;42.146;24.756;2023-05-17T05:04:22;16.25;;;9.38;;
78005;SDS011;67211;42.146;24.756;2023-05-17T05:06:48;13.90;;;8.60;;
78005;SDS011;67211;42.146;24.756;2023-05-17T05:09:15;19.88;;;9.35;;
78005;SDS011;67211;42.146;24.756;2023-05-17T05:11:41;17.77;;;9.95;;
78005;SDS011;67211;42.146;24.756;2023-05-17T05:14:06;14.75;;;9.02;;
78005;SDS011;67211;42.146;24.756;2023-05-17T05:16:31;14.45;;;9.00;;
78005;SDS011;67211;42.146;24.756;2023-05-17T05:18:57;15.48;;;8.73;;
78005;SDS011;67211;42.146;24.756;2023-05-17T05:21:22;13.48;;;9.02;;
78005;SDS011;67211;42.146;24.756;2023-05-17T05:23:48;14.55;;;8.68;;
78005;SDS011;67211;42.146;24.756;2023-05-17T05:26:13;14.68;;;8.82;;
78005;SDS011;67211;42.146;24.756;2023-05-17T05:28:38;14.38;;;9.00;;
78005;SDS011;67211;42.146;24.756;2023-05-17T05:31:04;15.13;;;9.52;;
78005;SDS011;67211;42.146;24.756;2023-05-17T05:33:32;17.15;;;8.07;;
78005;SDS011;67211;42.146;24.756;2023-05-17T05:35:58;14.15;;;8.68;;
78005;SDS011;67211;42.146;24.756;2023-05-17T05:38:23;15.95;;;8.32;;
78005;SDS011;67211;42.146;24.756;2023-05-17T05:40:49;16.00;;;9.10;;
78005;SDS011;67211;42.146;24.756;2023-05-17T05:43:14;14.10;;;8.82;;
78005;SDS011;67211;42.146;24.756;2023-05-17T05:45:40;15.57;;;8.85;;
78005;SDS011;67211;42.146;24.756;2023-05-17T05:48:10;18.10;;;9.93;;
78005;SDS011;67211;42.146;24.756;2023-05-17T05:50:37;17.92;;;9.75;;
78005;SDS011;67211;42.146;24.756;2023-05-17T05:53:03;17.27;;;9.82;;
78005;SDS011;67211;42.146;24.756;2023-05-17T05:55:28;16.98;;;8.80;;
78005;SDS011;67211;42.146;24.756;2023-05-17T05:57:53;14.57;;;9.50;;
78005;SDS011;67211;42.146;24.756;2023-05-17T06:00:19;16.30;;;8.57;;
78005;SDS011;67211;42.146;24.756;2023-05-17T06:02:44;17.20;;;9.93;;
78005;SDS011;67211;42.146;24.756;2023-05-17T06:05:10;21.83;;;10.90;;
78005;SDS011;67211;42.146;24.756;2023-05-17T06:07:35;16.48;;;9.57;;
78005;SDS011;67211;42.146;24.756;2023-05-17T06:10:01;14.50;;;9.00;;
78005;SDS011;67211;42.146;24.756;2023-05-17T06:12:26;16.63;;;8.93;;
78005;SDS011;67211;42.146;24.756;2023-05-17T06:14:51;20.00;;;8.82;;
78005;SDS011;67211;42.146;24.756;2023-05-17T06:17:17;12.65;;;8.95;;
78005;SDS011;67211;42.146;24.756;2023-05-17T06:19:42;13.48;;;8.95;;
78005;SDS011;67211;42.146;24.756;2023-05-17T06:22:08;14.60;;;8.57;;
78005;SDS011;67211;42.146;24.756;2023-05-17T06:24:33;16.30;;;8.32;;
78005;SDS011;67211;42.146;24.756;2023-05-17T06:26:58;14.05;;;9.00;;
78005;SDS011;67211;42.146;24.756;2023-05-17T06:29:24;12.50;;;8.68;;
78005;SDS011;67211;42.146;24.756;2023-05-17T06:31:49;16.23;;;9.00;;
78005;SDS011;67211;42.146;24.756;2023-05-17T06:34:15;14.95;;;8.95;;
78005;SDS011;67211;42.146;24.756;2023-05-17T06:36:40;15.48;;;9.23;;
78005;SDS011;67211;42.146;24.756;2023-05-17T06:39:05;14.57;;;8.27;;
78005;SDS011;67211;42.146;24.756;2023-05-17T06:41:31;15.15;;;7.63;;
78005;SDS011;67211;42.146;24.756;2023-05-17T06:43:56;18.73;;;8.93;;
78005;SDS011;67211;42.146;24.756;2023-05-17T06:46:22;13.88;;;7.93;;
78005;SDS011;67211;42.146;24.756;2023-05-17T06:48:47;12.52;;;8.80;;
78005;SDS011;67211;42.146;24.756;2023-05-17T06:51:13;17.13;;;9.52;;
78005;SDS011;67211;42.146;24.756;2023-05-17T06:53:38;16.08;;;9.15;;
78005;SDS011;67211;42.146;24.756;2023-05-17T06:56:03;14.40;;;9.02;;
78005;SDS011;67211;42.146;24.756;2023-05-17T06:58:29;16.17;;;9.18;;
78005;SDS011;67211;42.146;24.756;2023-05-17T07:00:54;20.42;;;10.65;;
78005;SDS011;67211;42.146;24.756;2023-05-17T07:03:21;18.35;;;11.55;;
78005;SDS011;67211;42.146;24.756;2023-05-17T07:05:46;17.85;;;11.02;;
78005;SDS011;67211;42.146;24.756;2023-05-17T07:08:12;17.45;;;12.63;;
78005;SDS011;67211;42.146;24.756;2023-05-17T07:10:39;16.67;;;10.73;;
78005;SDS011;67211;42.146;24.756;2023-05-17T07:13:04;21.52;;;11.32;;
78005;SDS011;67211;42.146;24.756;2023-05-17T07:15:30;20.02;;;12.02;;
78005;SDS011;67211;42.146;24.756;2023-05-17T07:17:55;21.83;;;11.40;;
78005;SDS011;67211;42.146;24.756;2023-05-17T07:20:20;17.80;;;11.32;;
78005;SDS011;67211;42.146;24.756;2023-05-17T07:22:46;18.63;;;10.57;;
78005;SDS011;67211;42.146;24.756;2023-05-17T07:25:12;16.45;;;10.20;;
78005;SDS011;67211;42.146;24.756;2023-05-17T07:27:39;17.25;;;10.73;;
78005;SDS011;67211;42.146;24.756;2023-05-17T07:30:05;16.13;;;10.48;;
78005;SDS011;67211;42.146;24.756;2023-05-17T07:32:31;18.00;;;10.98;;
78005;SDS011;67211;42.146;24.756;2023-05-17T07:34:56;15.02;;;9.85;;
78005;SDS011;67211;42.146;24.756;2023-05-17T07:37:22;15.30;;;10.05;;
78005;SDS011;67211;42.146;24.756;2023-05-17T07:39:47;18.73;;;11.20;;
78005;SDS011;67211;42.146;24.756;2023-05-17T07:42:13;18.13;;;11.18;;
78005;SDS011;67211;42.146;24.756;2023-05-17T07:44:38;16.98;;;9.95;;
78005;SDS011;67211;42.146;24.756;2023-05-17T07:47:03;16.30;;;10.30;;
78005;SDS011;67211;42.146;24.756;2023-05-17T07:49:29;16.77;;;11.35;;
78005;SDS011;67211;42.146;24.756;2023-05-17T07:51:55;24.27;;;11.90;;
78005;SDS011;67211;42.146;24.756;2023-05-17T07:54:21;21.30;;;11.68;;
78005;SDS011;67211;42.146;24.756;2023-05-17T07:56:48;23.20;;;13.23;;
78005;SDS011;67211;42.146;24.756;2023-05-17T07:59:13;21.98;;;13.25;;
78005;SDS011;67211;42.146;24.756;2023-05-17T08:01:39;23.30;;;13.80;;
78005;SDS011;67211;42.146;24.756;2023-05-17T08:04:04;23.98;;;13.68;;
78005;SDS011;67211;42.146;24.756;2023-05-17T08:06:30;24.05;;;13.70;;
78005;SDS011;67211;42.146;24.756;2023-05-17T08:08:55;22.25;;;12.40;;
78005;SDS011;67211;42.146;24.756;2023-05-17T08:11:21;23.25;;;13.30;;
78005;SDS011;67211;42.146;24.756;2023-05-17T08:13:46;20.88;;;13.07;;
78005;SDS011;67211;42.146;24.756;2023-05-17T08:16:11;23.00;;;13.98;;
78005;SDS011;67211;42.146;24.756;2023-05-17T08:18:37;24.55;;;14.20;;
78005;SDS011;67211;42.146;24.756;2023-05-17T08:21:02;22.73;;;13.68;;
78005;SDS011;67211;42.146;24.756;2023-05-17T08:23:28;21.73;;;12.88;;
78005;SDS011;67211;42.146;24.756;2023-05-17T08:25:54;21.27;;;12.55;;
78005;SDS011;67211;42.146;24.756;2023-05-17T08:28:19;24.83;;;13.95;;
78005;SDS011;67211;42.146;24.756;2023-05-17T08:30:44;21.40;;;14.40;;
78005;SDS011;67211;42.146;24.756;2023-05-17T08:33:10;25.23;;;14.32;;
78005;SDS011;67211;42.146;24.756;2023-05-17T08:35:37;26.45;;;13.82;;
78005;SDS011;67211;42.146;24.756;2023-05-17T08:38:02;23.25;;;14.05;;
78005;SDS011;67211;42.146;24.756;2023-05-17T08:40:27;21.42;;;13.73;;
78005;SDS011;67211;42.146;24.756;2023-05-17T08:42:53;25.35;;;15.18;;
78005;SDS011;67211;42.146;24.756;2023-05-17T08:45:19;25.15;;;14.20;;
78005;SDS011;67211;42.146;24.756;2023-05-17T08:47:44;24.98;;;15.05;;
78005;SDS011;67211;42.146;24.756;2023-05-17T08:50:13;30.33;;;15.05;;
78005;SDS011;67211;42.146;24.756;2023-05-17T08:52:39;24.48;;;14.95;;
78005;SDS011;67211;42.146;24.756;2023-05-17T08:55:05;25.65;;;14.73;;
78005;SDS011;67211;42.146;24.756;2023-05-17T08:57:32;24.88;;;15.38;;
78005;SDS011;67211;42.146;24.756;2023-05-17T09:00:00;27.02;;;15.55;;
78005;SDS011;67211;42.146;24.756;2023-05-17T09:02:25;25.50;;;15.05;;
78005;SDS011;67211;42.146;24.756;2023-05-17T09:04:53;24.90;;;15.23;;
78005;SDS011;67211;42.146;24.756;2023-05-17T09:07:20;28.75;;;15.95;;
78005;SDS011;67211;42.146;24.756;2023-05-17T09:09:52;27.10;;;17.00;;
78005;SDS011;67211;42.146;24.756;2023-05-17T09:12:18;28.38;;;16.17;;
78005;SDS011;67211;42.146;24.756;2023-05-17T09:14:46;27.35;;;17.40;;
78005;SDS011;67211;42.146;24.756;2023-05-17T09:17:13;31.77;;;18.05;;
78005;SDS011;67211;42.146;24.756;2023-05-17T09:19:45;27.98;;;17.35;;
78005;SDS011;67211;42.146;24.756;2023-05-17T09:22:12;30.30;;;17.42;;
78005;SDS011;67211;42.146;24.756;2023-05-17T09:24:39;25.15;;;16.95;;
78005;SDS011;67211;42.146;24.756;2023-05-17T09:27:05;31.83;;;17.38;;
78005;SDS011;67211;42.146;24.756;2023-05-17T09:29:31;67.60;;;43.00;;
78005;SDS011;67211;42.146;24.756;2023-05-17T09:32:03;48.65;;;35.10;;
78005;SDS011;67211;42.146;24.756;2023-05-17T09:34:37;42.55;;;30.02;;
78005;SDS011;67211;42.146;24.756;2023-05-17T09:37:13;26.02;;;17.65;;
78005;SDS011;67211;42.146;24.756;2023-05-17T09:39:40;27.73;;;15.48;;
78005;SDS011;67211;42.146;24.756;2023-05-17T09:42:06;23.58;;;15.00;;
78005;SDS011;67211;42.146;24.756;2023-05-17T09:44:44;22.95;;;13.90;;
78005;SDS011;67211;42.146;24.756;2023-05-17T09:47:27;24.25;;;14.77;;
78005;SDS011;67211;42.146;24.756;2023-05-17T09:49:58;21.40;;;13.88;;
78005;SDS011;67211;42.146;24.756;2023-05-17T09:52:27;20.13;;;14.05;;
78005;SDS011;67211;42.146;24.756;2023-05-17T09:54:58;25.75;;;16.45;;
78005;SDS011;67211;42.146;24.756;2023-05-17T09:57:34;26.30;;;14.95;;
78005;SDS011;67211;42.146;24.756;2023-05-17T10:00:01;26.45;;;16.08;;
78005;SDS011;67211;42.146;24.756;2023-05-17T10:02:30;22.23;;;13.13;;
78005;SDS011;67211;42.146;24.756;2023-05-17T10:04:56;22.70;;;12.90;;
78005;SDS011;67211;42.146;24.756;2023-05-17T10:07:23;20.92;;;12.05;;
78005;SDS011;67211;42.146;24.756;2023-05-17T10:09:50;16.10;;;11.65;;
78005;SDS011;67211;42.146;24.756;2023-05-17T10:12:18;18.98;;;11.27;;
78005;SDS011;67211;42.146;24.756;2023-05-17T10:14:46;15.55;;;10.15;;
78005;SDS011;67211;42.146;24.756;2023-05-17T10:17:12;18.77;;;11.00;;
78005;SDS011;67211;42.146;24.756;2023-05-17T10:19:38;16.15;;;11.18;;
78005;SDS011;67211;42.146;24.756;2023-05-17T10:22:04;16.65;;;11.55;;
78005;SDS011;67211;42.146;24.756;2023-05-17T10:24:30;15.70;;;9.93;;
78005;SDS011;67211;42.146;24.756;2023-05-17T10:26:56;16.60;;;11.98;;
78005;SDS011;67211;42.146;24.756;2023-05-17T10:29:22;17.83;;;10.43;;
78005;SDS011;67211;42.146;24.756;2023-05-17T10:31:48;16.25;;;10.50;;
78005;SDS011;67211;42.146;24.756;2023-05-17T10:34:20;15.82;;;10.63;;
78005;SDS011;67211;42.146;24.756;2023-05-17T10:36:47;21.95;;;12.35;;
78005;SDS011;67211;42.146;24.756;2023-05-17T10:39:15;15.85;;;10.80;;
78005;SDS011;67211;42.146;24.756;2023-05-17T10:41:41;18.20;;;11.60;;
78005;SDS011;67211;42.146;24.756;2023-05-17T10:44:08;14.80;;;11.23;;
78005;SDS011;67211;42.146;24.756;2023-05-17T10:46:36;16.02;;;11.48;;
78005;SDS011;67211;42.146;24.756;2023-05-17T10:49:03;14.50;;;11.07;;
78005;SDS011;67211;42.146;24.756;2023-05-17T10:51:29;16.67;;;11.70;;
78005;SDS011;67211;42.146;24.756;2023-05-17T10:56:37;18.73;;;11.60;;
78005;SDS011;67211;42.146;24.756;2023-05-17T11:02:09;20.05;;;12.75;;
78005;SDS011;67211;42.146;24.756;2023-05-17T11:04:48;20.35;;;11.88;;
78005;SDS011;67211;42.146;24.756;2023-05-17T11:09:48;17.23;;;11.65;;
78005;SDS011;67211;42.146;24.756;2023-05-17T11:12:14;16.25;;;10.75;;
78005;SDS011;67211;42.146;24.756;2023-05-17T11:17:16;17.35;;;11.05;;
78005;SDS011;67211;42.146;24.756;2023-05-17T11:24:40;17.30;;;10.77;;
78005;SDS011;67211;42.146;24.756;2023-05-17T11:27:08;13.85;;;9.95;;
78005;SDS011;67211;42.146;24.756;2023-05-17T11:29:34;16.45;;;10.43;;
78005;SDS011;67211;42.146;24.756;2023-05-17T11:31:59;17.75;;;11.52;;
78005;SDS011;67211;42.146;24.756;2023-05-17T11:34:31;17.33;;;10.88;;
78005;SDS011;67211;42.146;24.756;2023-05-17T11:36:57;20.02;;;12.25;;
78005;SDS011;67211;42.146;24.756;2023-05-17T11:39:23;17.23;;;11.80;;
78005;SDS011;67211;42.146;24.756;2023-05-17T11:41:50;18.02;;;12.52;;
78005;SDS011;67211;42.146;24.756;2023-05-17T11:44:32;20.83;;;12.88;;
78005;SDS011;67211;42.146;24.756;2023-05-17T11:47:02;20.00;;;13.40;;
78005;SDS011;67211;42.146;24.756;2023-05-17T11:49:29;22.75;;;13.65;;
78005;SDS011;67211;42.146;24.756;2023-05-17T11:51:56;24.90;;;14.85;;
78005;SDS011;67211;42.146;24.756;2023-05-17T11:54:23;21.70;;;13.50;;
78005;SDS011;67211;42.146;24.756;2023-05-17T11:56:48;20.90;;;15.23;;
78005;SDS011;67211;42.146;24.756;2023-05-17T11:59:18;21.13;;;14.30;;
78005;SDS011;67211;42.146;24.756;2023-05-17T12:01:44;20.90;;;14.25;;
78005;SDS011;67211;42.146;24.756;2023-05-17T12:04:10;22.08;;;15.38;;
78005;SDS011;67211;42.146;24.756;2023-05-17T12:06:36;23.70;;;14.80;;
78005;SDS011;67211;42.146;24.756;2023-05-17T12:09:02;23.13;;;14.82;;
78005;SDS011;67211;42.146;24.756;2023-05-17T12:11:29;22.15;;;15.07;;
78005;SDS011;67211;42.146;24.756;2023-05-17T12:13:54;19.77;;;14.10;;
78005;SDS011;67211;42.146;24.756;2023-05-17T12:16:21;23.00;;;14.65;;
78005;SDS011;67211;42.146;24.756;2023-05-17T12:18:47;21.10;;;14.60;;
78005;SDS011;67211;42.146;24.756;2023-05-17T12:21:15;25.25;;;15.65;;
78005;SDS011;67211;42.146;24.756;2023-05-17T12:23:47;23.77;;;15.90;;
78005;SDS011;67211;42.146;24.756;2023-05-17T12:26:15;24.52;;;14.90;;
78005;SDS011;67211;42.146;24.756;2023-05-17T12:28:43;23.80;;;15.52;;
78005;SDS011;67211;42.146;24.756;2023-05-17T12:31:13;26.45;;;16.88;;
78005;SDS011;67211;42.146;24.756;2023-05-17T12:33:43;24.60;;;16.63;;
78005;SDS011;67211;42.146;24.756;2023-05-17T12:36:09;24.67;;;16.27;;
78005;SDS011;67211;42.146;24.756;2023-05-17T12:38:36;20.42;;;14.85;;
78005;SDS011;67211;42.146;24.756;2023-05-17T12:41:03;27.15;;;16.10;;
78005;SDS011;67211;42.146;24.756;2023-05-17T12:43:33;23.95;;;15.98;;
78005;SDS011;67211;42.146;24.756;2023-05-17T12:46:09;22.75;;;16.13;;
78005;SDS011;67211;42.146;24.756;2023-05-17T12:48:36;22.33;;;16.42;;
78005;SDS011;67211;42.146;24.756;2023-05-17T12:51:13;24.88;;;15.50;;
78005;SDS011;67211;42.146;24.756;2023-05-17T12:53:53;27.42;;;16.23;;
78005;SDS011;67211;42.146;24.756;2023-05-17T12:56:25;25.23;;;15.05;;
78005;SDS011;67211;42.146;24.756;2023-05-17T13:01:34;24.42;;;16.50;;
78005;SDS011;67211;42.146;24.756;2023-05-17T13:04:01;22.15;;;15.65;;
78005;SDS011;67211;42.146;24.756;2023-05-17T13:06:27;21.92;;;15.20;;
78005;SDS011;67211;42.146;24.756;2023-05-17T13:08:59;22.08;;;14.68;;
78005;SDS011;67211;42.146;24.756;2023-05-17T13:11:25;19.17;;;14.13;;
78005;SDS011;67211;42.146;24.756;2023-05-17T13:13:51;21.60;;;16.25;;
78005;SDS011;67211;42.146;24.756;2023-05-17T13:16:16;25.23;;;15.82;;
78005;SDS011;67211;42.146;24.756;2023-05-17T13:18:45;20.17;;;14.00;;
78005;SDS011;67211;42.146;24.756;2023-05-17T13:21:15;23.30;;;15.55;;
78005;SDS011;67211;42.146;24.756;2023-05-17T13:23:48;22.13;;;14.70;;
78005;SDS011;67211;42.146;24.756;2023-05-17T13:26:15;24.65;;;16.52;;
78005;SDS011;67211;42.146;24.756;2023-05-17T13:28:41;24.65;;;15.77;;
78005;SDS011;67211;42.146;24.756;2023-05-17T13:31:06;24.80;;;15.77;;
78005;SDS011;67211;42.146;24.756;2023-05-17T13:33:31;23.80;;;15.85;;
78005;SDS011;67211;42.146;24.756;2023-05-17T13:35:57;21.17;;;14.95;;
78005;SDS011;67211;42.146;24.756;2023-05-17T13:38:22;23.10;;;15.93;;
78005;SDS011;67211;42.146;24.756;2023-05-17T13:40:49;21.90;;;15.32;;
78005;SDS011;67211;42.146;24.756;2023-05-17T13:43:15;20.15;;;14.38;;
78005;SDS011;67211;42.146;24.756;2023-05-17T13:45:42;19.73;;;13.75;;
78005;SDS011;67211;42.146;24.756;2023-05-17T13:48:08;17.88;;;13.02;;
78005;SDS011;67211;42.146;24.756;2023-05-17T13:50:34;17.42;;;13.23;;
78005;SDS011;67211;42.146;24.756;2023-05-17T13:52:59;19.63;;;15.32;;
78005;SDS011;67211;42.146;24.756;2023-05-17T13:55:26;20.08;;;14.68;;
78005;SDS011;67211;42.146;24.756;2023-05-17T13:57:52;21.92;;;14.95;;
78005;SDS011;67211;42.146;24.756;2023-05-17T14:00:19;19.60;;;14.52;;
78005;SDS011;67211;42.146;24.756;2023-05-17T14:02:45;20.38;;;14.60;;
78005;SDS011;67211;42.146;24.756;2023-05-17T14:05:10;18.65;;;14.20;;
78005;SDS011;67211;42.146;24.756;2023-05-17T14:07:36;20.15;;;14.43;;
78005;SDS011;67211;42.146;24.756;2023-05-17T14:10:06;20.45;;;14.50;;
78005;SDS011;67211;42.146;24.756;2023-05-17T14:12:33;21.17;;;14.80;;
78005;SDS011;67211;42.146;24.756;2023-05-17T14:15:00;21.85;;;15.00;;
78005;SDS011;67211;42.146;24.756;2023-05-17T14:17:25;23.20;;;16.20;;
78005;SDS011;67211;42.146;24.756;2023-05-17T14:19:51;23.02;;;16.92;;
78005;SDS011;67211;42.146;24.756;2023-05-17T14:22:16;22.95;;;16.83;;
78005;SDS011;67211;42.146;24.756;2023-05-17T14:24:42;24.90;;;17.55;;
78005;SDS011;67211;42.146;24.756;2023-05-17T14:27:07;25.17;;;16.38;;
78005;SDS011;67211;42.146;24.756;2023-05-17T14:29:32;22.73;;;15.70;;
78005;SDS011;67211;42.146;24.756;2023-05-17T14:31:58;22.65;;;16.02;;
78005;SDS011;67211;42.146;24.756;2023-05-17T14:34:23;24.83;;;15.07;;
78005;SDS011;67211;42.146;24.756;2023-05-17T14:36:49;20.67;;;14.05;;
78005;SDS011;67211;42.146;24.756;2023-05-17T14:39:15;21.02;;;14.02;;
78005;SDS011;67211;42.146;24.756;2023-05-17T14:41:41;20.50;;;14.30;;